sensor_id;sensor_type;location;lat;lon;timestamp;temperature;humidity
42187;DHT22;27858;51.414;0.018;2023-03-23T00:01:19;11.70;99.90
42187;DHT22;27858;51.414;0.018;2023-03-23T00:03:47;11.60;99.90
42187;DHT22;27858;51.414;0.018;2023-03-23T00:06:14;11.70;99.90
42187;DHT22;27858;51.414;0.018;2023-03-23T00:08:44;11.70;99.90
42187;DHT22;27858;51.414;0.018;2023-03-23T00:11:12;11.70;99.90
42187;DHT22;27858;51.414;0.018;2023-03-23T00:13:41;11.70;99.90
42187;DHT22;27858;51.414;0.018;2023-03-23T00:16:07;11.60;99.90
42187;DHT22;27858;51.414;0.018;2023-03-23T00:18:44;11.60;99.90
42187;DHT22;27858;51.414;0.018;2023-03-23T00:21:10;11.50;99.90
42187;DHT22;27858;51.414;0.018;2023-03-23T00:23:35;11.50;99.90
42187;DHT22;27858;51.414;0.018;2023-03-23T00:26:01;11.50;99.90
42187;DHT22;27858;51.414;0.018;2023-03-23T00:28:27;11.60;99.90
42187;DHT22;27858;51.414;0.018;2023-03-23T00:31:00;11.50;99.90
42187;DHT22;27858;51.414;0.018;2023-03-23T00:33:28;11.60;99.90
42187;DHT22;27858;51.414;0.018;2023-03-23T00:35:55;11.50;99.90
42187;DHT22;27858;51.414;0.018;2023-03-23T00:38:24;11.60;99.90
42187;DHT22;27858;51.414;0.018;2023-03-23T00:40:50;11.60;99.90
42187;DHT22;27858;51.414;0.018;2023-03-23T00:43:17;11.70;99.90
42187;DHT22;27858;51.414;0.018;2023-03-23T00:45:44;11.70;99.90
42187;DHT22;27858;51.414;0.018;2023-03-23T00:48:11;11.70;99.90
42187;DHT22;27858;51.414;0.018;2023-03-23T00:50:38;11.60;99.90
42187;DHT22;27858;51.414;0.018;2023-03-23T00:53:05;11.60;99.90
42187;DHT22;27858;51.414;0.018;2023-03-23T00:55:30;11.60;99.90
42187;DHT22;27858;51.414;0.018;2023-03-23T00:57:56;11.60;99.90
42187;DHT22;27858;51.414;0.018;2023-03-23T05:01:48;10.10;99.90
42187;DHT22;27858;51.414;0.018;2023-03-23T05:04:14;10.10;99.90
42187;DHT22;27858;51.414;0.018;2023-03-23T05:06:42;9.90;99.90
42187;DHT22;27858;51.414;0.018;2023-03-23T05:09:11;10.00;99.90
42187;DHT22;27858;51.414;0.018;2023-03-23T05:11:37;9.80;99.90
42187;DHT22;27858;51.414;0.018;2023-03-23T05:14:04;9.90;99.90
42187;DHT22;27858;51.414;0.018;2023-03-23T05:16:30;9.90;99.90
42187;DHT22;27858;51.414;0.018;2023-03-23T05:18:56;9.90;99.90
42187;DHT22;27858;51.414;0.018;2023-03-23T05:21:23;10.10;99.90
42187;DHT22;27858;51.414;0.018;2023-03-23T05:23:48;9.90;99.90
42187;DHT22;27858;51.414;0.018;2023-03-23T05:26:20;10.10;99.90
42187;DHT22;27858;51.414;0.018;2023-03-23T05:28:46;9.90;99.90
42187;DHT22;27858;51.414;0.018;2023-03-23T05:31:13;10.00;99.90
42187;DHT22;27858;51.414;0.018;2023-03-23T05:33:39;9.90;99.90
42187;DHT22;27858;51.414;0.018;2023-03-23T05:36:05;9.80;99.90
42187;DHT22;27858;51.414;0.018;2023-03-23T05:38:33;10.00;99.90
42187;DHT22;27858;51.414;0.018;2023-03-23T05:40:59;10.10;99.90
42187;DHT22;27858;51.414;0.018;2023-03-23T05:43:26;10.10;99.90
42187;DHT22;27858;51.414;0.018;2023-03-23T05:45:52;9.90;99.90
42187;DHT22;27858;51.414;0.018;2023-03-23T05:48:18;9.80;99.90
42187;DHT22;27858;51.414;0.018;2023-03-23T05:50:43;9.90;99.90
42187;DHT22;27858;51.414;0.018;2023-03-23T05:53:09;9.80;99.90
42187;DHT22;27858;51.414;0.018;2023-03-23T05:55:36;9.70;99.90
42187;DHT22;27858;51.414;0.018;2023-03-23T05:58:01;9.70;99.90
42187;DHT22;27858;51.414;0.018;2023-03-23T06:00:27;9.80;99.90
42187;DHT22;27858;51.414;0.018;2023-03-23T06:02:56;9.70;99.90
42187;DHT22;27858;51.414;0.018;2023-03-23T06:05:22;9.60;99.90
42187;DHT22;27858;51.414;0.018;2023-03-23T06:07:49;9.70;99.90
42187;DHT22;27858;51.414;0.018;2023-03-23T06:10:15;9.60;99.90
42187;DHT22;27858;51.414;0.018;2023-03-23T06:12:42;9.60;99.90
42187;DHT22;27858;51.414;0.018;2023-03-23T06:15:11;9.50;99.90
42187;DHT22;27858;51.414;0.018;2023-03-23T06:17:38;9.70;99.90
42187;DHT22;27858;51.414;0.018;2023-03-23T06:20:07;9.70;99.90
42187;DHT22;27858;51.414;0.018;2023-03-23T06:22:35;9.60;99.90
42187;DHT22;27858;51.414;0.018;2023-03-23T06:25:01;9.60;99.90
42187;DHT22;27858;51.414;0.018;2023-03-23T06:27:26;9.70;99.90
42187;DHT22;27858;51.414;0.018;2023-03-23T06:29:52;9.70;99.90
42187;DHT22;27858;51.414;0.018;2023-03-23T06:32:18;9.50;99.90
42187;DHT22;27858;51.414;0.018;2023-03-23T06:34:44;9.70;99.90
42187;DHT22;27858;51.414;0.018;2023-03-23T06:37:11;9.80;99.90
42187;DHT22;27858;51.414;0.018;2023-03-23T06:39:37;9.70;99.90
42187;DHT22;27858;51.414;0.018;2023-03-23T06:42:04;9.80;99.90
42187;DHT22;27858;51.414;0.018;2023-03-23T06:44:30;9.60;99.90
42187;DHT22;27858;51.414;0.018;2023-03-23T06:46:56;9.80;99.90
42187;DHT22;27858;51.414;0.018;2023-03-23T06:49:22;9.70;99.90
42187;DHT22;27858;51.414;0.018;2023-03-23T06:51:48;9.80;99.90
42187;DHT22;27858;51.414;0.018;2023-03-23T06:54:14;9.80;99.90
42187;DHT22;27858;51.414;0.018;2023-03-23T06:56:40;9.80;99.90
42187;DHT22;27858;51.414;0.018;2023-03-23T06:59:05;9.70;99.90
42187;DHT22;27858;51.414;0.018;2023-03-23T07:01:31;9.80;99.90
42187;DHT22;27858;51.414;0.018;2023-03-23T07:03:57;9.80;99.90
42187;DHT22;27858;51.414;0.018;2023-03-23T07:06:23;9.70;99.90
42187;DHT22;27858;51.414;0.018;2023-03-23T07:08:50;9.90;99.90
42187;DHT22;27858;51.414;0.018;2023-03-23T07:11:15;10.00;99.90
42187;DHT22;27858;51.414;0.018;2023-03-23T07:13:41;9.90;99.90
42187;DHT22;27858;51.414;0.018;2023-03-23T07:16:07;10.00;99.90
42187;DHT22;27858;51.414;0.018;2023-03-23T07:18:33;10.20;99.90
42187;DHT22;27858;51.414;0.018;2023-03-23T07:20:59;10.00;99.90
42187;DHT22;27858;51.414;0.018;2023-03-23T07:23:25;10.30;99.90
42187;DHT22;27858;51.414;0.018;2023-03-23T07:25:51;10.40;99.90
42187;DHT22;27858;51.414;0.018;2023-03-23T07:28:17;10.40;99.90
42187;DHT22;27858;51.414;0.018;2023-03-23T07:30:44;10.60;99.90
42187;DHT22;27858;51.414;0.018;2023-03-23T07:33:10;10.60;99.90
42187;DHT22;27858;51.414;0.018;2023-03-23T07:35:36;10.60;99.90
42187;DHT22;27858;51.414;0.018;2023-03-23T07:38:03;10.60;99.90
42187;DHT22;27858;51.414;0.018;2023-03-23T07:40:29;10.70;99.90
42187;DHT22;27858;51.414;0.018;2023-03-23T07:42:59;10.70;99.90
42187;DHT22;27858;51.414;0.018;2023-03-23T07:45:25;10.80;99.90
42187;DHT22;27858;51.414;0.018;2023-03-23T07:47:52;10.80;99.90
42187;DHT22;27858;51.414;0.018;2023-03-23T07:50:19;10.80;99.90
42187;DHT22;27858;51.414;0.018;2023-03-23T07:52:48;10.90;99.90
42187;DHT22;27858;51.414;0.018;2023-03-23T07:55:13;10.90;99.90
42187;DHT22;27858;51.414;0.018;2023-03-23T07:57:46;10.90;99.90
42187;DHT22;27858;51.414;0.018;2023-03-23T08:00:15;11.10;99.90
42187;DHT22;27858;51.414;0.018;2023-03-23T08:02:49;11.10;99.90
42187;DHT22;27858;51.414;0.018;2023-03-23T08:05:16;11.00;99.90
42187;DHT22;27858;51.414;0.018;2023-03-23T08:07:42;11.20;99.90
42187;DHT22;27858;51.414;0.018;2023-03-23T08:10:09;11.20;99.90
42187;DHT22;27858;51.414;0.018;2023-03-23T08:12:42;11.20;99.90
42187;DHT22;27858;51.414;0.018;2023-03-23T08:15:10;11.40;99.90
42187;DHT22;27858;51.414;0.018;2023-03-23T08:17:39;11.50;99.90
42187;DHT22;27858;51.414;0.018;2023-03-23T08:20:06;11.40;99.90
42187;DHT22;27858;51.414;0.018;2023-03-23T08:22:37;11.50;99.90
42187;DHT22;27858;51.414;0.018;2023-03-23T08:25:04;11.60;99.90
42187;DHT22;27858;51.414;0.018;2023-03-23T08:27:32;11.70;99.90
42187;DHT22;27858;51.414;0.018;2023-03-23T08:29:57;11.70;99.90
42187;DHT22;27858;51.414;0.018;2023-03-23T08:32:24;11.70;99.90
42187;DHT22;27858;51.414;0.018;2023-03-23T08:34:50;11.80;99.90
42187;DHT22;27858;51.414;0.018;2023-03-23T08:37:15;11.80;99.90
42187;DHT22;27858;51.414;0.018;2023-03-23T08:39:42;11.90;99.90
42187;DHT22;27858;51.414;0.018;2023-03-23T08:42:11;11.90;99.90
42187;DHT22;27858;51.414;0.018;2023-03-23T08:44:37;11.90;99.90
42187;DHT22;27858;51.414;0.018;2023-03-23T08:47:03;11.90;99.90
42187;DHT22;27858;51.414;0.018;2023-03-23T08:49:31;11.90;99.90
42187;DHT22;27858;51.414;0.018;2023-03-23T08:51:59;12.00;99.90
42187;DHT22;27858;51.414;0.018;2023-03-23T08:54:25;12.10;99.90
42187;DHT22;27858;51.414;0.018;2023-03-23T08:56:51;12.30;99.90
42187;DHT22;27858;51.414;0.018;2023-03-23T08:59:18;12.30;99.90
42187;DHT22;27858;51.414;0.018;2023-03-23T09:01:46;12.50;99.90
42187;DHT22;27858;51.414;0.018;2023-03-23T09:04:13;12.50;99.90
42187;DHT22;27858;51.414;0.018;2023-03-23T09:06:40;12.40;99.90
42187;DHT22;27858;51.414;0.018;2023-03-23T09:09:06;12.50;99.90
42187;DHT22;27858;51.414;0.018;2023-03-23T09:11:35;12.70;99.90
42187;DHT22;27858;51.414;0.018;2023-03-23T09:14:03;12.70;99.90
42187;DHT22;27858;51.414;0.018;2023-03-23T09:16:29;12.70;99.90
42187;DHT22;27858;51.414;0.018;2023-03-23T09:18:55;12.70;99.90
42187;DHT22;27858;51.414;0.018;2023-03-23T09:21:23;12.80;99.90
42187;DHT22;27858;51.414;0.018;2023-03-23T09:23:49;12.80;99.90
42187;DHT22;27858;51.414;0.018;2023-03-23T09:26:15;12.80;99.90
42187;DHT22;27858;51.414;0.018;2023-03-23T09:28:41;12.90;99.90
42187;DHT22;27858;51.414;0.018;2023-03-23T09:31:06;12.80;99.90
42187;DHT22;27858;51.414;0.018;2023-03-23T09:33:33;12.90;99.90
42187;DHT22;27858;51.414;0.018;2023-03-23T09:35:59;12.90;99.90
42187;DHT22;27858;51.414;0.018;2023-03-23T09:38:24;12.90;99.90
42187;DHT22;27858;51.414;0.018;2023-03-23T09:46:30;12.80;99.90
42187;DHT22;27858;51.414;0.018;2023-03-23T09:49:05;12.70;99.90
42187;DHT22;27858;51.414;0.018;2023-03-23T09:51:56;12.70;99.90
42187;DHT22;27858;51.414;0.018;2023-03-23T09:54:30;12.80;99.90
42187;DHT22;27858;51.414;0.018;2023-03-23T09:56:59;12.80;99.90
42187;DHT22;27858;51.414;0.018;2023-03-23T09:59:39;12.90;99.90
42187;DHT22;27858;51.414;0.018;2023-03-23T10:02:12;13.10;99.90
42187;DHT22;27858;51.414;0.018;2023-03-23T10:04:55;12.90;99.90
42187;DHT22;27858;51.414;0.018;2023-03-23T10:07:24;13.00;99.90
42187;DHT22;27858;51.414;0.018;2023-03-23T10:10:00;12.90;99.90
42187;DHT22;27858;51.414;0.018;2023-03-23T10:12:41;12.80;99.90
42187;DHT22;27858;51.414;0.018;2023-03-23T10:15:29;12.70;99.90
42187;DHT22;27858;51.414;0.018;2023-03-23T10:18:17;12.90;99.90
42187;DHT22;27858;51.414;0.018;2023-03-23T10:20:48;12.90;99.90
42187;DHT22;27858;51.414;0.018;2023-03-23T10:28:39;13.00;99.90
42187;DHT22;27858;51.414;0.018;2023-03-23T10:31:10;13.10;99.90
42187;DHT22;27858;51.414;0.018;2023-03-23T10:33:42;13.00;99.90
42187;DHT22;27858;51.414;0.018;2023-03-23T10:36:26;12.90;99.90
42187;DHT22;27858;51.414;0.018;2023-03-23T10:41:33;12.90;99.90
42187;DHT22;27858;51.414;0.018;2023-03-23T10:43:59;12.80;99.90
42187;DHT22;27858;51.414;0.018;2023-03-23T10:46:47;12.90;99.90
42187;DHT22;27858;51.414;0.018;2023-03-23T10:49:23;12.80;99.90
42187;DHT22;27858;51.414;0.018;2023-03-23T10:52:32;12.50;99.90
42187;DHT22;27858;51.414;0.018;2023-03-23T10:55:14;12.40;99.90
42187;DHT22;27858;51.414;0.018;2023-03-23T10:58:05;12.30;99.90
42187;DHT22;27858;51.414;0.018;2023-03-23T11:00:32;12.20;99.90
42187;DHT22;27858;51.414;0.018;2023-03-23T11:03:04;12.20;99.90
42187;DHT22;27858;51.414;0.018;2023-03-23T11:05:49;12.30;99.90
42187;DHT22;27858;51.414;0.018;2023-03-23T11:08:24;12.30;99.90
42187;DHT22;27858;51.414;0.018;2023-03-23T11:10:55;12.40;99.90
42187;DHT22;27858;51.414;0.018;2023-03-23T11:13:23;12.40;99.90
42187;DHT22;27858;51.414;0.018;2023-03-23T11:15:52;12.70;99.90
42187;DHT22;27858;51.414;0.018;2023-03-23T11:18:20;12.70;99.90
42187;DHT22;27858;51.414;0.018;2023-03-23T11:20:52;12.70;99.90
42187;DHT22;27858;51.414;0.018;2023-03-23T11:23:23;12.90;99.90
42187;DHT22;27858;51.414;0.018;2023-03-23T11:26:41;13.10;99.90
42187;DHT22;27858;51.414;0.018;2023-03-23T11:28:48;13.10;99.90
42187;DHT22;27858;51.414;0.018;2023-03-23T11:31:17;13.30;99.90
42187;DHT22;27858;51.414;0.018;2023-03-23T11:36:29;13.40;99.90
42187;DHT22;27858;51.414;0.018;2023-03-23T11:38:55;13.40;99.90
42187;DHT22;27858;51.414;0.018;2023-03-23T11:41:30;13.40;99.90
42187;DHT22;27858;51.414;0.018;2023-03-23T11:43:56;13.30;99.90
42187;DHT22;27858;51.414;0.018;2023-03-23T11:46:41;13.20;99.90
42187;DHT22;27858;51.414;0.018;2023-03-23T11:49:41;13.30;99.90
42187;DHT22;27858;51.414;0.018;2023-03-23T11:52:22;13.30;99.90
42187;DHT22;27858;51.414;0.018;2023-03-23T11:55:01;13.60;99.90
42187;DHT22;27858;51.414;0.018;2023-03-23T11:57:29;13.80;99.90
42187;DHT22;27858;51.414;0.018;2023-03-23T11:59:56;13.70;99.90
42187;DHT22;27858;51.414;0.018;2023-03-23T12:13:36;13.80;99.90
42187;DHT22;27858;51.414;0.018;2023-03-23T12:24:53;13.70;99.90
42187;DHT22;27858;51.414;0.018;2023-03-23T12:33:01;13.70;99.90
42187;DHT22;27858;51.414;0.018;2023-03-23T12:38:15;13.80;99.90
42187;DHT22;27858;51.414;0.018;2023-03-23T12:43:42;13.90;99.90
42187;DHT22;27858;51.414;0.018;2023-03-23T12:48:42;14.00;99.90
42187;DHT22;27858;51.414;0.018;2023-03-23T12:56:46;14.70;99.90
42187;DHT22;27858;51.414;0.018;2023-03-23T13:02:14;14.80;99.90
42187;DHT22;27858;51.414;0.018;2023-03-23T13:04:45;14.90;51.20
42187;DHT22;27858;51.414;0.018;2023-03-23T13:07:18;15.00;35.80
42187;DHT22;27858;51.414;0.018;2023-03-23T13:09:50;14.80;19.00
42187;DHT22;27858;51.414;0.018;2023-03-23T13:12:18;14.90;9.10
42187;DHT22;27858;51.414;0.018;2023-03-23T13:17:48;15.10;1.00
42187;DHT22;27858;51.414;0.018;2023-03-23T13:20:31;14.90;1.00
42187;DHT22;27858;51.414;0.018;2023-03-23T13:23:15;14.70;1.00
42187;DHT22;27858;51.414;0.018;2023-03-23T13:28:51;14.80;1.00
42187;DHT22;27858;51.414;0.018;2023-03-23T13:31:34;14.70;1.00
42187;DHT22;27858;51.414;0.018;2023-03-23T13:34:10;14.60;1.00
42187;DHT22;27858;51.414;0.018;2023-03-23T13:36:41;14.60;1.00
42187;DHT22;27858;51.414;0.018;2023-03-23T13:47:28;15.00;1.00
42187;DHT22;27858;51.414;0.018;2023-03-23T13:50:12;15.30;1.00
42187;DHT22;27858;51.414;0.018;2023-03-23T14:03:01;15.60;1.00
42187;DHT22;27858;51.414;0.018;2023-03-23T14:05:39;15.70;99.90
42187;DHT22;27858;51.414;0.018;2023-03-23T14:10:53;15.80;99.90
42187;DHT22;27858;51.414;0.018;2023-03-23T14:13:49;15.50;99.90
42187;DHT22;27858;51.414;0.018;2023-03-23T14:16:24;15.20;99.90
42187;DHT22;27858;51.414;0.018;2023-03-23T14:21:42;14.80;1.00
42187;DHT22;27858;51.414;0.018;2023-03-23T14:24:21;14.70;1.00
42187;DHT22;27858;51.414;0.018;2023-03-23T14:26:52;14.60;1.00
42187;DHT22;27858;51.414;0.018;2023-03-23T14:29:19;14.50;1.00
42187;DHT22;27858;51.414;0.018;2023-03-23T14:31:52;14.50;1.00
42187;DHT22;27858;51.414;0.018;2023-03-23T14:34:19;14.40;1.00
42187;DHT22;27858;51.414;0.018;2023-03-23T14:36:46;14.40;1.00
42187;DHT22;27858;51.414;0.018;2023-03-23T14:39:19;14.40;1.00
42187;DHT22;27858;51.414;0.018;2023-03-23T14:41:46;14.20;1.00
42187;DHT22;27858;51.414;0.018;2023-03-23T14:44:19;14.10;11.30
42187;DHT22;27858;51.414;0.018;2023-03-23T14:46:46;14.20;27.50
42187;DHT22;27858;51.414;0.018;2023-03-23T14:49:19;14.20;51.30
42187;DHT22;27858;51.414;0.018;2023-03-23T14:51:51;14.10;59.60
42187;DHT22;27858;51.414;0.018;2023-03-23T14:54:27;14.20;94.70
42187;DHT22;27858;51.414;0.018;2023-03-23T14:56:55;14.00;99.90
42187;DHT22;27858;51.414;0.018;2023-03-23T14:59:21;13.90;99.90
42187;DHT22;27858;51.414;0.018;2023-03-23T15:01:50;14.00;99.90
42187;DHT22;27858;51.414;0.018;2023-03-23T15:04:19;13.90;99.90
42187;DHT22;27858;51.414;0.018;2023-03-23T15:06:53;13.70;99.90
42187;DHT22;27858;51.414;0.018;2023-03-23T15:09:23;13.60;99.90
42187;DHT22;27858;51.414;0.018;2023-03-23T15:12:22;13.40;99.90
42187;DHT22;27858;51.414;0.018;2023-03-23T15:14:55;13.40;99.90
42187;DHT22;27858;51.414;0.018;2023-03-23T15:17:26;13.20;99.90
42187;DHT22;27858;51.414;0.018;2023-03-23T15:19:54;13.20;99.90
42187;DHT22;27858;51.414;0.018;2023-03-23T15:22:24;13.00;99.90
42187;DHT22;27858;51.414;0.018;2023-03-23T15:27:33;12.90;99.90
42187;DHT22;27858;51.414;0.018;2023-03-23T15:30:30;12.80;99.90
42187;DHT22;27858;51.414;0.018;2023-03-23T15:33:13;13.00;99.90
42187;DHT22;27858;51.414;0.018;2023-03-23T15:35:45;12.90;99.90
42187;DHT22;27858;51.414;0.018;2023-03-23T15:40:42;13.00;99.90
42187;DHT22;27858;51.414;0.018;2023-03-23T15:43:20;12.90;99.90
42187;DHT22;27858;51.414;0.018;2023-03-23T15:48:22;12.80;99.90
42187;DHT22;27858;51.414;0.018;2023-03-23T15:50:49;12.80;99.90
42187;DHT22;27858;51.414;0.018;2023-03-23T15:53:33;12.70;99.90
42187;DHT22;27858;51.414;0.018;2023-03-23T15:56:02;12.60;99.90
42187;DHT22;27858;51.414;0.018;2023-03-23T15:58:29;12.70;99.90
42187;DHT22;27858;51.414;0.018;2023-03-23T16:00:56;12.60;99.90
42187;DHT22;27858;51.414;0.018;2023-03-23T16:03:28;12.70;99.90
42187;DHT22;27858;51.414;0.018;2023-03-23T16:05:56;12.50;99.90
42187;DHT22;27858;51.414;0.018;2023-03-23T16:08:25;12.40;99.90
42187;DHT22;27858;51.414;0.018;2023-03-23T16:10:52;12.30;99.90
42187;DHT22;27858;51.414;0.018;2023-03-23T16:13:19;12.30;99.90
42187;DHT22;27858;51.414;0.018;2023-03-23T16:15:46;12.50;99.90
42187;DHT22;27858;51.414;0.018;2023-03-23T16:18:20;12.30;99.90
42187;DHT22;27858;51.414;0.018;2023-03-23T16:20:48;12.50;99.90
42187;DHT22;27858;51.414;0.018;2023-03-23T16:23:16;12.30;99.90
42187;DHT22;27858;51.414;0.018;2023-03-23T16:25:43;12.30;99.90
42187;DHT22;27858;51.414;0.018;2023-03-23T16:28:11;11.90;99.90
42187;DHT22;27858;51.414;0.018;2023-03-23T16:30:39;11.90;99.90
42187;DHT22;27858;51.414;0.018;2023-03-23T16:33:06;12.20;99.90
42187;DHT22;27858;51.414;0.018;2023-03-23T16:35:34;11.80;99.90
42187;DHT22;27858;51.414;0.018;2023-03-23T16:38:01;11.70;99.90
42187;DHT22;27858;51.414;0.018;2023-03-23T16:40:36;12.00;99.90
42187;DHT22;27858;51.414;0.018;2023-03-23T16:43:03;12.10;99.90
42187;DHT22;27858;51.414;0.018;2023-03-23T16:45:39;12.00;99.90
42187;DHT22;27858;51.414;0.018;2023-03-23T16:48:11;11.50;99.90
42187;DHT22;27858;51.414;0.018;2023-03-23T16:50:38;11.40;99.90
42187;DHT22;27858;51.414;0.018;2023-03-23T16:53:06;11.80;99.90
42187;DHT22;27858;51.414;0.018;2023-03-23T16:55:34;11.90;99.90
42187;DHT22;27858;51.414;0.018;2023-03-23T16:58:02;11.70;99.90
42187;DHT22;27858;51.414;0.018;2023-03-23T17:00:32;11.30;99.90
42187;DHT22;27858;51.414;0.018;2023-03-23T17:03:00;11.30;99.90
42187;DHT22;27858;51.414;0.018;2023-03-23T17:05:28;11.10;99.90
42187;DHT22;27858;51.414;0.018;2023-03-23T17:07:55;11.20;99.90
42187;DHT22;27858;51.414;0.018;2023-03-23T17:10:24;11.10;99.90
42187;DHT22;27858;51.414;0.018;2023-03-23T17:12:53;11.70;99.90
42187;DHT22;27858;51.414;0.018;2023-03-23T17:15:21;11.20;99.90
42187;DHT22;27858;51.414;0.018;2023-03-23T17:17:50;11.30;99.90
42187;DHT22;27858;51.414;0.018;2023-03-23T17:20:18;11.80;99.90
42187;DHT22;27858;51.414;0.018;2023-03-23T17:22:44;11.90;99.90
42187;DHT22;27858;51.414;0.018;2023-03-23T17:25:11;11.80;99.90
42187;DHT22;27858;51.414;0.018;2023-03-23T17:27:38;11.40;99.90
42187;DHT22;27858;51.414;0.018;2023-03-23T17:30:07;11.60;99.90
42187;DHT22;27858;51.414;0.018;2023-03-23T17:32:34;11.40;99.90
42187;DHT22;27858;51.414;0.018;2023-03-23T17:35:03;11.30;99.90
42187;DHT22;27858;51.414;0.018;2023-03-23T17:37:31;11.80;99.90
42187;DHT22;27858;51.414;0.018;2023-03-23T17:39:59;11.80;99.90
42187;DHT22;27858;51.414;0.018;2023-03-23T17:42:25;11.70;99.90
42187;DHT22;27858;51.414;0.018;2023-03-23T17:44:52;11.50;99.90
42187;DHT22;27858;51.414;0.018;2023-03-23T17:47:19;11.10;99.90
42187;DHT22;27858;51.414;0.018;2023-03-23T17:49:46;11.20;99.90
42187;DHT22;27858;51.414;0.018;2023-03-23T17:52:13;11.20;99.90
42187;DHT22;27858;51.414;0.018;2023-03-23T17:54:40;11.70;99.90
42187;DHT22;27858;51.414;0.018;2023-03-23T17:57:07;11.70;99.90
42187;DHT22;27858;51.414;0.018;2023-03-23T17:59:34;11.70;99.90
42187;DHT22;27858;51.414;0.018;2023-03-23T18:02:01;11.70;99.90
42187;DHT22;27858;51.414;0.018;2023-03-23T18:04:28;11.50;99.90
42187;DHT22;27858;51.414;0.018;2023-03-23T18:06:55;11.80;99.90
42187;DHT22;27858;51.414;0.018;2023-03-23T18:09:24;11.20;99.90
42187;DHT22;27858;51.414;0.018;2023-03-23T18:11:51;11.70;99.90
42187;DHT22;27858;51.414;0.018;2023-03-23T18:14:19;11.30;99.90
42187;DHT22;27858;51.414;0.018;2023-03-23T18:16:46;11.80;99.90
42187;DHT22;27858;51.414;0.018;2023-03-23T18:19:14;11.20;99.90
42187;DHT22;27858;51.414;0.018;2023-03-23T18:21:41;11.70;99.90
42187;DHT22;27858;51.414;0.018;2023-03-23T18:24:12;11.60;99.90
42187;DHT22;27858;51.414;0.018;2023-03-23T18:26:40;11.10;99.90
42187;DHT22;27858;51.414;0.018;2023-03-23T18:29:07;11.10;99.90
42187;DHT22;27858;51.414;0.018;2023-03-23T18:31:34;11.00;99.90
42187;DHT22;27858;51.414;0.018;2023-03-23T18:34:06;11.00;99.90
42187;DHT22;27858;51.414;0.018;2023-03-23T18:36:33;11.70;99.90
42187;DHT22;27858;51.414;0.018;2023-03-23T18:39:00;11.30;99.90
42187;DHT22;27858;51.414;0.018;2023-03-23T18:41:27;11.10;99.90
42187;DHT22;27858;51.414;0.018;2023-03-23T18:43:54;11.60;99.90
42187;DHT22;27858;51.414;0.018;2023-03-23T18:46:23;11.60;99.90
42187;DHT22;27858;51.414;0.018;2023-03-23T18:48:51;11.70;99.90
42187;DHT22;27858;51.414;0.018;2023-03-23T18:51:18;11.10;99.90
42187;DHT22;27858;51.414;0.018;2023-03-23T18:53:44;11.10;99.90
42187;DHT22;27858;51.414;0.018;2023-03-23T18:56:14;11.60;99.90
42187;DHT22;27858;51.414;0.018;2023-03-23T18:58:44;11.10;99.90
42187;DHT22;27858;51.414;0.018;2023-03-23T19:01:14;11.70;99.90
42187;DHT22;27858;51.414;0.018;2023-03-23T19:03:42;11.00;99.90
42187;DHT22;27858;51.414;0.018;2023-03-23T19:06:22;11.60;99.90
42187;DHT22;27858;51.414;0.018;2023-03-23T19:08:51;11.70;99.90
42187;DHT22;27858;51.414;0.018;2023-03-23T19:11:20;11.00;99.90
42187;DHT22;27858;51.414;0.018;2023-03-23T19:13:47;11.70;99.90
42187;DHT22;27858;51.414;0.018;2023-03-23T19:16:29;11.60;99.90
42187;DHT22;27858;51.414;0.018;2023-03-23T19:18:56;11.00;99.90
42187;DHT22;27858;51.414;0.018;2023-03-23T19:21:23;11.10;99.90
42187;DHT22;27858;51.414;0.018;2023-03-23T19:23:53;11.60;99.90
42187;DHT22;27858;51.414;0.018;2023-03-23T19:26:28;11.10;99.90
42187;DHT22;27858;51.414;0.018;2023-03-23T19:28:55;11.80;99.90
42187;DHT22;27858;51.414;0.018;2023-03-23T19:31:24;11.10;99.90
42187;DHT22;27858;51.414;0.018;2023-03-23T19:33:52;11.80;99.90
42187;DHT22;27858;51.414;0.018;2023-03-23T19:36:20;11.60;99.90
42187;DHT22;27858;51.414;0.018;2023-03-23T19:38:47;11.10;99.90
42187;DHT22;27858;51.414;0.018;2023-03-23T19:41:14;11.10;99.90
42187;DHT22;27858;51.414;0.018;2023-03-23T19:43:44;11.70;99.90
42187;DHT22;27858;51.414;0.018;2023-03-23T19:46:11;11.40;99.90
42187;DHT22;27858;51.414;0.018;2023-03-23T19:48:39;11.30;99.90
42187;DHT22;27858;51.414;0.018;2023-03-23T19:51:06;11.10;99.90
42187;DHT22;27858;51.414;0.018;2023-03-23T19:53:34;11.20;99.90
42187;DHT22;27858;51.414;0.018;2023-03-23T19:56:02;11.00;99.90
42187;DHT22;27858;51.414;0.018;2023-03-23T19:58:30;10.90;99.90
42187;DHT22;27858;51.414;0.018;2023-03-23T20:00:59;11.40;99.90
42187;DHT22;27858;51.414;0.018;2023-03-23T20:03:26;10.80;99.90
42187;DHT22;27858;51.414;0.018;2023-03-23T20:06:02;10.90;99.90
42187;DHT22;27858;51.414;0.018;2023-03-23T20:08:30;11.50;99.90
42187;DHT22;27858;51.414;0.018;2023-03-23T20:11:08;11.10;99.90
42187;DHT22;27858;51.414;0.018;2023-03-23T20:13:35;11.50;99.90
42187;DHT22;27858;51.414;0.018;2023-03-23T20:16:02;11.50;99.90
42187;DHT22;27858;51.414;0.018;2023-03-23T20:18:30;11.50;99.90
42187;DHT22;27858;51.414;0.018;2023-03-23T20:21:05;10.90;99.90
42187;DHT22;27858;51.414;0.018;2023-03-23T20:23:34;11.00;99.90
42187;DHT22;27858;51.414;0.018;2023-03-23T20:26:03;11.00;99.90
42187;DHT22;27858;51.414;0.018;2023-03-23T20:28:32;11.00;99.90
42187;DHT22;27858;51.414;0.018;2023-03-23T20:31:14;11.20;99.90
42187;DHT22;27858;51.414;0.018;2023-03-23T20:33:50;11.20;99.90
42187;DHT22;27858;51.414;0.018;2023-03-23T20:36:28;10.90;99.90
42187;DHT22;27858;51.414;0.018;2023-03-23T20:39:04;10.80;99.90
42187;DHT22;27858;51.414;0.018;2023-03-23T20:41:32;10.90;99.90
42187;DHT22;27858;51.414;0.018;2023-03-23T20:44:02;11.50;99.90
42187;DHT22;27858;51.414;0.018;2023-03-23T20:46:30;11.00;99.90
42187;DHT22;27858;51.414;0.018;2023-03-23T20:48:57;11.50;99.90
42187;DHT22;27858;51.414;0.018;2023-03-23T20:51:24;10.80;99.90
42187;DHT22;27858;51.414;0.018;2023-03-23T20:53:51;11.30;99.90
42187;DHT22;27858;51.414;0.018;2023-03-23T20:56:18;10.70;99.90
42187;DHT22;27858;51.414;0.018;2023-03-23T20:58:45;11.20;99.90
42187;DHT22;27858;51.414;0.018;2023-03-23T21:01:13;10.80;99.90
42187;DHT22;27858;51.414;0.018;2023-03-23T21:03:41;11.30;99.90
42187;DHT22;27858;51.414;0.018;2023-03-23T21:06:08;10.60;99.90
42187;DHT22;27858;51.414;0.018;2023-03-23T21:08:37;10.60;99.90
42187;DHT22;27858;51.414;0.018;2023-03-23T21:11:08;10.50;99.90
42187;DHT22;27858;51.414;0.018;2023-03-23T21:13:35;11.10;99.90
42187;DHT22;27858;51.414;0.018;2023-03-23T21:16:05;10.70;99.90
42187;DHT22;27858;51.414;0.018;2023-03-23T21:18:33;10.60;99.90
42187;DHT22;27858;51.414;0.018;2023-03-23T21:21:00;10.30;99.90
42187;DHT22;27858;51.414;0.018;2023-03-23T21:23:28;11.00;99.90
42187;DHT22;27858;51.414;0.018;2023-03-23T21:25:59;10.40;99.90